sensor_id;sensor_type;location;lat;lon;timestamp;P1;durP1;ratioP1;P2;durP2;ratioP2
21215;SDS011;10765;50.954;5.322;2022-08-02T00:02:26;5.33;;;2.60;;
21215;SDS011;10765;50.954;5.322;2022-08-02T00:04:52;3.50;;;2.93;;
21215;SDS011;10765;50.954;5.322;2022-08-02T00:07:19;4.53;;;2.97;;
21215;SDS011;10765;50.954;5.322;2022-08-02T00:09:47;4.30;;;2.43;;
21215;SDS011;10765;50.954;5.322;2022-08-02T00:12:14;3.10;;;2.20;;
21215;SDS011;10765;50.954;5.322;2022-08-02T00:14:41;6.70;;;2.70;;
21215;SDS011;10765;50.954;5.322;2022-08-02T00:17:08;5.17;;;2.60;;
21215;SDS011;10765;50.954;5.322;2022-08-02T00:19:35;3.80;;;2.50;;
21215;SDS011;10765;50.954;5.322;2022-08-02T00:22:02;4.80;;;3.07;;
21215;SDS011;10765;50.954;5.322;2022-08-02T00:24:29;3.87;;;2.90;;
21215;SDS011;10765;50.954;5.322;2022-08-02T00:26:57;4.20;;;2.50;;
21215;SDS011;10765;50.954;5.322;2022-08-02T00:29:27;6.47;;;2.37;;
21215;SDS011;10765;50.954;5.322;2022-08-02T00:31:55;6.47;;;2.87;;
21215;SDS011;10765;50.954;5.322;2022-08-02T00:34:22;5.60;;;2.80;;
21215;SDS011;10765;50.954;5.322;2022-08-02T00:36:49;4.60;;;2.80;;
21215;SDS011;10765;50.954;5.322;2022-08-02T00:39:16;3.70;;;2.77;;
21215;SDS011;10765;50.954;5.322;2022-08-02T00:41:44;5.60;;;3.10;;
21215;SDS011;10765;50.954;5.322;2022-08-02T00:44:13;4.47;;;2.73;;
21215;SDS011;10765;50.954;5.322;2022-08-02T00:46:40;7.20;;;3.87;;
21215;SDS011;10765;50.954;5.322;2022-08-02T00:49:07;4.13;;;3.43;;
21215;SDS011;10765;50.954;5.322;2022-08-02T00:51:34;6.07;;;4.00;;
21215;SDS011;10765;50.954;5.322;2022-08-02T00:54:01;4.73;;;3.60;;
21215;SDS011;10765;50.954;5.322;2022-08-02T00:56:29;4.83;;;3.20;;
21215;SDS011;10765;50.954;5.322;2022-08-02T00:58:56;6.23;;;3.30;;
21215;SDS011;10765;50.954;5.322;2022-08-02T01:01:24;5.00;;;3.10;;
21215;SDS011;10765;50.954;5.322;2022-08-02T01:04:02;4.63;;;3.70;;
21215;SDS011;10765;50.954;5.322;2022-08-02T01:06:30;7.57;;;3.13;;
21215;SDS011;10765;50.954;5.322;2022-08-02T01:08:58;5.03;;;3.30;;
21215;SDS011;10765;50.954;5.322;2022-08-02T01:11:26;3.73;;;3.40;;
21215;SDS011;10765;50.954;5.322;2022-08-02T01:13:53;7.63;;;4.00;;
21215;SDS011;10765;50.954;5.322;2022-08-02T01:16:25;3.70;;;3.27;;
21215;SDS011;10765;50.954;5.322;2022-08-02T01:18:58;4.80;;;3.60;;
21215;SDS011;10765;50.954;5.322;2022-08-02T01:21:37;4.63;;;3.20;;
21215;SDS011;10765;50.954;5.322;2022-08-02T01:24:20;5.30;;;3.43;;
21215;SDS011;10765;50.954;5.322;2022-08-02T01:26:57;5.90;;;3.50;;
21215;SDS011;10765;50.954;5.322;2022-08-02T01:29:36;5.20;;;3.33;;
21215;SDS011;10765;50.954;5.322;2022-08-02T01:32:09;3.97;;;3.20;;
21215;SDS011;10765;50.954;5.322;2022-08-02T01:34:41;5.43;;;3.47;;
21215;SDS011;10765;50.954;5.322;2022-08-02T01:37:13;6.20;;;4.00;;
21215;SDS011;10765;50.954;5.322;2022-08-02T01:39:45;4.83;;;3.87;;
21215;SDS011;10765;50.954;5.322;2022-08-02T01:42:15;6.70;;;3.60;;
21215;SDS011;10765;50.954;5.322;2022-08-02T01:44:45;5.80;;;3.77;;
21215;SDS011;10765;50.954;5.322;2022-08-02T01:47:17;4.63;;;3.53;;
21215;SDS011;10765;50.954;5.322;2022-08-02T01:49:47;4.57;;;3.50;;
21215;SDS011;10765;50.954;5.322;2022-08-02T01:52:16;5.40;;;3.47;;
21215;SDS011;10765;50.954;5.322;2022-08-02T01:54:51;5.03;;;3.83;;
21215;SDS011;10765;50.954;5.322;2022-08-02T01:57:25;4.87;;;3.30;;
21215;SDS011;10765;50.954;5.322;2022-08-02T01:59:56;6.00;;;3.23;;
21215;SDS011;10765;50.954;5.322;2022-08-02T02:02:24;7.30;;;3.40;;
21215;SDS011;10765;50.954;5.322;2022-08-02T02:04:54;3.60;;;3.30;;
21215;SDS011;10765;50.954;5.322;2022-08-02T02:07:23;5.50;;;3.47;;
21215;SDS011;10765;50.954;5.322;2022-08-02T02:09:51;5.60;;;4.83;;
21215;SDS011;10765;50.954;5.322;2022-08-02T02:12:19;6.37;;;4.43;;
21215;SDS011;10765;50.954;5.322;2022-08-02T02:14:49;8.27;;;4.40;;
21215;SDS011;10765;50.954;5.322;2022-08-02T02:17:18;6.57;;;4.20;;
21215;SDS011;10765;50.954;5.322;2022-08-02T02:19:48;5.43;;;4.20;;
21215;SDS011;10765;50.954;5.322;2022-08-02T02:22:18;6.23;;;4.97;;
21215;SDS011;10765;50.954;5.322;2022-08-02T02:24:45;5.63;;;4.17;;
21215;SDS011;10765;50.954;5.322;2022-08-02T02:27:12;6.43;;;4.00;;
21215;SDS011;10765;50.954;5.322;2022-08-02T02:29:42;4.60;;;3.90;;
21215;SDS011;10765;50.954;5.322;2022-08-02T02:32:12;8.27;;;4.17;;
21215;SDS011;10765;50.954;5.322;2022-08-02T02:34:43;6.90;;;3.90;;
21215;SDS011;10765;50.954;5.322;2022-08-02T02:37:12;4.97;;;3.90;;
21215;SDS011;10765;50.954;5.322;2022-08-02T02:39:42;6.73;;;4.13;;
21215;SDS011;10765;50.954;5.322;2022-08-02T02:42:10;4.63;;;3.73;;
21215;SDS011;10765;50.954;5.322;2022-08-02T02:44:41;6.33;;;4.23;;
21215;SDS011;10765;50.954;5.322;2022-08-02T02:47:09;6.57;;;4.47;;
21215;SDS011;10765;50.954;5.322;2022-08-02T02:49:39;6.37;;;4.13;;
21215;SDS011;10765;50.954;5.322;2022-08-02T02:52:09;7.43;;;4.63;;
21215;SDS011;10765;50.954;5.322;2022-08-02T02:54:38;6.73;;;5.40;;
21215;SDS011;10765;50.954;5.322;2022-08-02T02:57:05;8.17;;;5.60;;
21215;SDS011;10765;50.954;5.322;2022-08-02T02:59:34;5.90;;;4.40;;
21215;SDS011;10765;50.954;5.322;2022-08-02T03:02:02;6.93;;;4.17;;
21215;SDS011;10765;50.954;5.322;2022-08-02T03:04:29;4.63;;;4.20;;
21215;SDS011;10765;50.954;5.322;2022-08-02T03:06:58;4.80;;;4.10;;
21215;SDS011;10765;50.954;5.322;2022-08-02T03:09:27;4.63;;;4.20;;
21215;SDS011;10765;50.954;5.322;2022-08-02T03:11:54;5.27;;;3.97;;
21215;SDS011;10765;50.954;5.322;2022-08-02T03:14:21;5.07;;;4.40;;
21215;SDS011;10765;50.954;5.322;2022-08-02T03:16:49;5.00;;;4.27;;
21215;SDS011;10765;50.954;5.322;2022-08-02T03:19:17;7.97;;;4.97;;
21215;SDS011;10765;50.954;5.322;2022-08-02T03:21:45;4.90;;;4.17;;
21215;SDS011;10765;50.954;5.322;2022-08-02T03:24:13;6.37;;;4.23;;
21215;SDS011;10765;50.954;5.322;2022-08-02T03:26:42;5.20;;;4.30;;
21215;SDS011;10765;50.954;5.322;2022-08-02T03:29:08;5.70;;;4.13;;
21215;SDS011;10765;50.954;5.322;2022-08-02T03:31:35;7.10;;;4.77;;
21215;SDS011;10765;50.954;5.322;2022-08-02T03:34:06;4.77;;;4.07;;
21215;SDS011;10765;50.954;5.322;2022-08-02T03:36:33;3.80;;;3.50;;
21215;SDS011;10765;50.954;5.322;2022-08-02T03:39:01;5.10;;;3.60;;
21215;SDS011;10765;50.954;5.322;2022-08-02T03:41:29;5.27;;;4.33;;
21215;SDS011;10765;50.954;5.322;2022-08-02T03:43:58;4.63;;;3.80;;
21215;SDS011;10765;50.954;5.322;2022-08-02T03:46:27;5.10;;;4.07;;
21215;SDS011;10765;50.954;5.322;2022-08-02T03:48:54;5.37;;;4.37;;
21215;SDS011;10765;50.954;5.322;2022-08-02T03:51:22;5.40;;;4.77;;
21215;SDS011;10765;50.954;5.322;2022-08-02T03:53:49;5.33;;;4.90;;
21215;SDS011;10765;50.954;5.322;2022-08-02T03:56:16;9.93;;;4.60;;
21215;SDS011;10765;50.954;5.322;2022-08-02T03:58:44;5.67;;;4.80;;
21215;SDS011;10765;50.954;5.322;2022-08-02T04:01:12;6.80;;;4.63;;
21215;SDS011;10765;50.954;5.322;2022-08-02T04:03:39;6.03;;;4.53;;
21215;SDS011;10765;50.954;5.322;2022-08-02T04:06:06;6.60;;;5.00;;
21215;SDS011;10765;50.954;5.322;2022-08-02T04:08:33;6.37;;;4.70;;
21215;SDS011;10765;50.954;5.322;2022-08-02T04:11:00;5.80;;;4.87;;
21215;SDS011;10765;50.954;5.322;2022-08-02T04:13:44;7.90;;;5.13;;
21215;SDS011;10765;50.954;5.322;2022-08-02T04:16:14;9.63;;;6.00;;
21215;SDS011;10765;50.954;5.322;2022-08-02T04:18:49;9.43;;;5.63;;
21215;SDS011;10765;50.954;5.322;2022-08-02T04:21:19;7.70;;;5.33;;
21215;SDS011;10765;50.954;5.322;2022-08-02T04:23:49;6.10;;;4.50;;
21215;SDS011;10765;50.954;5.322;2022-08-02T04:26:16;6.77;;;4.93;;
21215;SDS011;10765;50.954;5.322;2022-08-02T04:28:44;5.10;;;4.60;;
21215;SDS011;10765;50.954;5.322;2022-08-02T04:31:13;6.37;;;5.03;;
21215;SDS011;10765;50.954;5.322;2022-08-02T04:33:42;5.10;;;4.60;;
21215;SDS011;10765;50.954;5.322;2022-08-02T04:36:09;7.43;;;4.33;;
21215;SDS011;10765;50.954;5.322;2022-08-02T04:38:38;8.60;;;4.43;;
21215;SDS011;10765;50.954;5.322;2022-08-02T04:41:05;5.13;;;4.63;;
21215;SDS011;10765;50.954;5.322;2022-08-02T04:43:32;6.90;;;4.20;;
21215;SDS011;10765;50.954;5.322;2022-08-02T04:45:59;5.93;;;4.33;;
21215;SDS011;10765;50.954;5.322;2022-08-02T04:48:28;6.70;;;4.13;;
21215;SDS011;10765;50.954;5.322;2022-08-02T04:50:56;5.77;;;3.90;;
21215;SDS011;10765;50.954;5.322;2022-08-02T04:53:23;6.43;;;4.40;;
21215;SDS011;10765;50.954;5.322;2022-08-02T04:55:50;5.23;;;4.73;;
21215;SDS011;10765;50.954;5.322;2022-08-02T04:58:17;4.40;;;4.00;;
21215;SDS011;10765;50.954;5.322;2022-08-02T05:00:43;5.50;;;4.80;;
21215;SDS011;10765;50.954;5.322;2022-08-02T05:03:10;5.33;;;4.60;;
21215;SDS011;10765;50.954;5.322;2022-08-02T05:05:40;5.60;;;5.00;;
21215;SDS011;10765;50.954;5.322;2022-08-02T05:08:06;6.87;;;6.27;;
21215;SDS011;10765;50.954;5.322;2022-08-02T05:10:33;8.20;;;6.10;;
21215;SDS011;10765;50.954;5.322;2022-08-02T05:13:02;6.23;;;5.67;;
21215;SDS011;10765;50.954;5.322;2022-08-02T05:15:29;6.90;;;5.87;;
21215;SDS011;10765;50.954;5.322;2022-08-02T05:17:56;7.40;;;5.47;;
21215;SDS011;10765;50.954;5.322;2022-08-02T05:20:23;5.77;;;5.20;;
21215;SDS011;10765;50.954;5.322;2022-08-02T05:22:52;5.17;;;4.57;;
21215;SDS011;10765;50.954;5.322;2022-08-02T05:25:19;5.10;;;4.60;;
21215;SDS011;10765;50.954;5.322;2022-08-02T05:27:46;4.97;;;4.40;;
21215;SDS011;10765;50.954;5.322;2022-08-02T05:30:12;6.20;;;4.67;;
21215;SDS011;10765;50.954;5.322;2022-08-02T05:32:43;4.30;;;3.90;;
21215;SDS011;10765;50.954;5.322;2022-08-02T05:35:11;6.37;;;4.43;;
21215;SDS011;10765;50.954;5.322;2022-08-02T05:37:38;5.00;;;3.70;;
21215;SDS011;10765;50.954;5.322;2022-08-02T05:40:07;4.30;;;3.90;;
21215;SDS011;10765;50.954;5.322;2022-08-02T05:42:34;4.60;;;3.67;;
21215;SDS011;10765;50.954;5.322;2022-08-02T05:45:01;4.73;;;3.97;;
21215;SDS011;10765;50.954;5.322;2022-08-02T05:47:29;5.27;;;3.77;;
21215;SDS011;10765;50.954;5.322;2022-08-02T05:49:56;4.60;;;4.10;;
21215;SDS011;10765;50.954;5.322;2022-08-02T05:52:23;4.50;;;3.90;;
21215;SDS011;10765;50.954;5.322;2022-08-02T05:54:54;4.97;;;4.23;;
21215;SDS011;10765;50.954;5.322;2022-08-02T05:57:33;4.77;;;3.70;;
21215;SDS011;10765;50.954;5.322;2022-08-02T06:00:06;4.20;;;3.80;;
21215;SDS011;10765;50.954;5.322;2022-08-02T06:02:41;6.47;;;3.93;;
21215;SDS011;10765;50.954;5.322;2022-08-02T06:05:28;6.40;;;4.20;;
21215;SDS011;10765;50.954;5.322;2022-08-02T06:07:58;6.50;;;3.67;;
21215;SDS011;10765;50.954;5.322;2022-08-02T06:10:27;4.10;;;3.30;;
21215;SDS011;10765;50.954;5.322;2022-08-02T06:13:00;4.10;;;3.70;;
21215;SDS011;10765;50.954;5.322;2022-08-02T06:15:32;4.20;;;3.63;;
21215;SDS011;10765;50.954;5.322;2022-08-02T06:18:00;5.43;;;3.60;;
21215;SDS011;10765;50.954;5.322;2022-08-02T06:20:27;6.60;;;3.77;;
21215;SDS011;10765;50.954;5.322;2022-08-02T06:22:59;4.77;;;3.27;;
21215;SDS011;10765;50.954;5.322;2022-08-02T06:25:27;5.63;;;3.70;;
21215;SDS011;10765;50.954;5.322;2022-08-02T06:27:54;5.63;;;3.67;;
21215;SDS011;10765;50.954;5.322;2022-08-02T06:30:25;4.97;;;3.57;;
21215;SDS011;10765;50.954;5.322;2022-08-02T06:32:53;5.20;;;3.40;;
21215;SDS011;10765;50.954;5.322;2022-08-02T06:35:20;5.00;;;3.37;;
21215;SDS011;10765;50.954;5.322;2022-08-02T06:37:50;5.17;;;3.40;;
21215;SDS011;10765;50.954;5.322;2022-08-02T06:40:24;3.93;;;3.10;;
21215;SDS011;10765;50.954;5.322;2022-08-02T06:42:59;3.97;;;2.90;;
21215;SDS011;10765;50.954;5.322;2022-08-02T06:45:36;4.63;;;3.57;;
21215;SDS011;10765;50.954;5.322;2022-08-02T06:48:04;6.37;;;3.27;;
21215;SDS011;10765;50.954;5.322;2022-08-02T06:50:31;3.50;;;3.20;;
21215;SDS011;10765;50.954;5.322;2022-08-02T06:52:58;3.33;;;3.03;;
21215;SDS011;10765;50.954;5.322;2022-08-02T06:55:26;3.22;;;2.70;;
21215;SDS011;10765;50.954;5.322;2022-08-02T06:57:53;4.60;;;2.90;;
21215;SDS011;10765;50.954;5.322;2022-08-02T07:00:22;5.70;;;2.30;;
21215;SDS011;10765;50.954;5.322;2022-08-02T07:02:49;3.92;;;2.60;;
21215;SDS011;10765;50.954;5.322;2022-08-02T07:05:16;2.92;;;2.20;;
21215;SDS011;10765;50.954;5.322;2022-08-02T07:07:43;2.63;;;2.30;;
21215;SDS011;10765;50.954;5.322;2022-08-02T07:10:11;2.42;;;1.88;;
21215;SDS011;10765;50.954;5.322;2022-08-02T07:12:38;2.28;;;2.03;;
21215;SDS011;10765;50.954;5.322;2022-08-02T07:15:06;4.28;;;2.30;;
21215;SDS011;10765;50.954;5.322;2022-08-02T07:17:37;2.10;;;2.00;;
21215;SDS011;10765;50.954;5.322;2022-08-02T07:20:05;2.53;;;2.33;;
21215;SDS011;10765;50.954;5.322;2022-08-02T07:22:33;2.92;;;2.10;;
21215;SDS011;10765;50.954;5.322;2022-08-02T07:25:02;3.35;;;2.05;;
21215;SDS011;10765;50.954;5.322;2022-08-02T07:27:30;2.72;;;2.05;;
21215;SDS011;10765;50.954;5.322;2022-08-02T07:29:57;1.95;;;1.77;;
21215;SDS011;10765;50.954;5.322;2022-08-02T07:32:25;3.38;;;1.85;;
21215;SDS011;10765;50.954;5.322;2022-08-02T07:34:55;2.00;;;1.90;;
21215;SDS011;10765;50.954;5.322;2022-08-02T07:37:23;2.33;;;2.13;;
21215;SDS011;10765;50.954;5.322;2022-08-02T07:39:51;2.03;;;1.83;;
21215;SDS011;10765;50.954;5.322;2022-08-02T07:42:18;2.13;;;1.92;;
21215;SDS011;10765;50.954;5.322;2022-08-02T07:44:45;3.92;;;1.92;;
21215;SDS011;10765;50.954;5.322;2022-08-02T07:47:12;2.47;;;1.70;;
21215;SDS011;10765;50.954;5.322;2022-08-02T07:49:39;2.22;;;1.40;;
21215;SDS011;10765;50.954;5.322;2022-08-02T07:52:08;1.95;;;1.55;;
21215;SDS011;10765;50.954;5.322;2022-08-02T07:54:35;1.73;;;1.63;;
21215;SDS011;10765;50.954;5.322;2022-08-02T07:57:02;3.22;;;1.67;;
21215;SDS011;10765;50.954;5.322;2022-08-02T07:59:29;4.80;;;1.80;;
21215;SDS011;10765;50.954;5.322;2022-08-02T08:01:56;2.95;;;2.00;;
21215;SDS011;10765;50.954;5.322;2022-08-02T08:04:23;3.63;;;1.95;;
21215;SDS011;10765;50.954;5.322;2022-08-02T08:06:50;2.75;;;1.58;;
21215;SDS011;10765;50.954;5.322;2022-08-02T08:09:19;1.90;;;1.80;;
21215;SDS011;10765;50.954;5.322;2022-08-02T08:11:46;1.67;;;1.58;;
21215;SDS011;10765;50.954;5.322;2022-08-02T08:14:13;1.92;;;1.75;;
21215;SDS011;10765;50.954;5.322;2022-08-02T08:16:43;3.40;;;1.80;;
21215;SDS011;10765;50.954;5.322;2022-08-02T08:19:10;2.40;;;1.67;;
21215;SDS011;10765;50.954;5.322;2022-08-02T08:21:37;2.28;;;2.13;;
21215;SDS011;10765;50.954;5.322;2022-08-02T08:24:04;3.25;;;1.48;;
21215;SDS011;10765;50.954;5.322;2022-08-02T08:26:33;2.85;;;1.75;;
21215;SDS011;10765;50.954;5.322;2022-08-02T08:29:00;1.73;;;1.63;;
21215;SDS011;10765;50.954;5.322;2022-08-02T08:31:26;2.70;;;1.88;;
21215;SDS011;10765;50.954;5.322;2022-08-02T08:33:53;2.85;;;1.70;;
21215;SDS011;10765;50.954;5.322;2022-08-02T08:36:21;2.17;;;1.63;;
21215;SDS011;10765;50.954;5.322;2022-08-02T08:38:48;3.22;;;2.00;;
21215;SDS011;10765;50.954;5.322;2022-08-02T08:41:15;1.70;;;1.50;;
21215;SDS011;10765;50.954;5.322;2022-08-02T08:43:43;3.78;;;1.80;;
21215;SDS011;10765;50.954;5.322;2022-08-02T08:46:12;1.90;;;1.80;;
21215;SDS011;10765;50.954;5.322;2022-08-02T08:48:47;1.92;;;1.30;;
21215;SDS011;10765;50.954;5.322;2022-08-02T08:51:18;2.30;;;1.38;;
21215;SDS011;10765;50.954;5.322;2022-08-02T08:53:47;3.05;;;2.00;;
21215;SDS011;10765;50.954;5.322;2022-08-02T08:56:15;1.50;;;1.40;;
21215;SDS011;10765;50.954;5.322;2022-08-02T08:58:44;2.88;;;1.50;;
21215;SDS011;10765;50.954;5.322;2022-08-02T09:01:12;2.00;;;1.80;;
21215;SDS011;10765;50.954;5.322;2022-08-02T09:03:40;4.93;;;2.15;;
21215;SDS011;10765;50.954;5.322;2022-08-02T09:06:07;2.08;;;1.60;;
21215;SDS011;10765;50.954;5.322;2022-08-02T09:08:34;2.88;;;1.77;;
21215;SDS011;10765;50.954;5.322;2022-08-02T09:11:01;3.25;;;1.73;;
21215;SDS011;10765;50.954;5.322;2022-08-02T09:13:38;1.67;;;1.55;;
21215;SDS011;10765;50.954;5.322;2022-08-02T09:16:26;2.05;;;1.85;;
21215;SDS011;10765;50.954;5.322;2022-08-02T09:18:54;5.47;;;1.73;;
21215;SDS011;10765;50.954;5.322;2022-08-02T09:21:21;2.38;;;1.65;;
21215;SDS011;10765;50.954;5.322;2022-08-02T09:23:49;2.08;;;1.58;;
21215;SDS011;10765;50.954;5.322;2022-08-02T09:26:19;1.80;;;1.50;;
21215;SDS011;10765;50.954;5.322;2022-08-02T09:28:50;1.70;;;1.48;;
21215;SDS011;10765;50.954;5.322;2022-08-02T09:31:19;2.47;;;1.40;;
21215;SDS011;10765;50.954;5.322;2022-08-02T09:33:49;2.70;;;1.55;;
21215;SDS011;10765;50.954;5.322;2022-08-02T09:36:18;1.63;;;1.50;;
21215;SDS011;10765;50.954;5.322;2022-08-02T09:38:52;2.03;;;1.60;;
21215;SDS011;10765;50.954;5.322;2022-08-02T09:41:22;2.15;;;1.60;;
21215;SDS011;10765;50.954;5.322;2022-08-02T09:43:51;1.60;;;1.50;;
21215;SDS011;10765;50.954;5.322;2022-08-02T09:46:19;2.80;;;1.60;;
21215;SDS011;10765;50.954;5.322;2022-08-02T09:48:48;2.67;;;2.00;;
21215;SDS011;10765;50.954;5.322;2022-08-02T09:51:17;2.88;;;1.70;;
21215;SDS011;10765;50.954;5.322;2022-08-02T09:53:45;3.17;;;1.83;;
21215;SDS011;10765;50.954;5.322;2022-08-02T09:56:14;1.90;;;1.48;;
21215;SDS011;10765;50.954;5.322;2022-08-02T09:58:42;4.18;;;1.95;;
21215;SDS011;10765;50.954;5.322;2022-08-02T10:01:11;3.28;;;1.63;;
21215;SDS011;10765;50.954;5.322;2022-08-02T10:03:43;6.20;;;1.75;;
21215;SDS011;10765;50.954;5.322;2022-08-02T10:06:20;2.40;;;2.20;;
21215;SDS011;10765;50.954;5.322;2022-08-02T10:08:47;4.78;;;2.00;;
21215;SDS011;10765;50.954;5.322;2022-08-02T10:11:14;3.10;;;2.30;;
21215;SDS011;10765;50.954;5.322;2022-08-02T10:13:42;2.22;;;2.00;;
21215;SDS011;10765;50.954;5.322;2022-08-02T10:16:10;2.30;;;2.08;;
21215;SDS011;10765;50.954;5.322;2022-08-02T10:18:38;3.70;;;2.00;;
21215;SDS011;10765;50.954;5.322;2022-08-02T10:21:05;2.28;;;1.95;;
21215;SDS011;10765;50.954;5.322;2022-08-02T10:23:38;5.45;;;2.30;;
21215;SDS011;10765;50.954;5.322;2022-08-02T10:26:12;4.75;;;1.98;;
21215;SDS011;10765;50.954;5.322;2022-08-02T10:28:42;2.65;;;1.90;;
21215;SDS011;10765;50.954;5.322;2022-08-02T10:31:13;4.10;;;2.30;;
21215;SDS011;10765;50.954;5.322;2022-08-02T10:33:44;2.72;;;1.85;;
21215;SDS011;10765;50.954;5.322;2022-08-02T10:36:12;2.63;;;2.00;;
21215;SDS011;10765;50.954;5.322;2022-08-02T10:38:40;2.53;;;2.33;;
21215;SDS011;10765;50.954;5.322;2022-08-02T10:41:08;2.60;;;2.00;;
21215;SDS011;10765;50.954;5.322;2022-08-02T10:43:40;2.70;;;2.00;;
21215;SDS011;10765;50.954;5.322;2022-08-02T10:46:28;3.17;;;2.25;;
21215;SDS011;10765;50.954;5.322;2022-08-02T10:49:01;3.85;;;2.10;;
21215;SDS011;10765;50.954;5.322;2022-08-02T10:51:54;2.78;;;2.33;;
21215;SDS011;10765;50.954;5.322;2022-08-02T10:54:32;2.00;;;1.90;;
21215;SDS011;10765;50.954;5.322;2022-08-02T10:57:01;2.35;;;1.80;;
21215;SDS011;10765;50.954;5.322;2022-08-02T10:59:30;2.15;;;1.80;;
21215;SDS011;10765;50.954;5.322;2022-08-02T11:01:59;3.90;;;1.95;;
21215;SDS011;10765;50.954;5.322;2022-08-02T11:04:30;2.10;;;1.80;;
21215;SDS011;10765;50.954;5.322;2022-08-02T11:07:05;2.58;;;1.70;;
21215;SDS011;10765;50.954;5.322;2022-08-02T11:09:33;2.75;;;1.70;;
21215;SDS011;10765;50.954;5.322;2022-08-02T11:12:01;4.63;;;2.00;;
21215;SDS011;10765;50.954;5.322;2022-08-02T11:14:29;5.90;;;1.95;;
21215;SDS011;10765;50.954;5.322;2022-08-02T11:17:05;2.05;;;1.90;;
21215;SDS011;10765;50.954;5.322;2022-08-02T11:22:36;3.97;;;1.98;;
21215;SDS011;10765;50.954;5.322;2022-08-02T11:28:07;4.60;;;1.73;;
21215;SDS011;10765;50.954;5.322;2022-08-02T11:30:35;3.25;;;1.50;;
21215;SDS011;10765;50.954;5.322;2022-08-02T11:33:04;5.40;;;1.70;;
21215;SDS011;10765;50.954;5.322;2022-08-02T11:35:32;5.30;;;1.52;;
21215;SDS011;10765;50.954;5.322;2022-08-02T11:38:12;3.92;;;1.50;;
21215;SDS011;10765;50.954;5.322;2022-08-02T11:40:43;1.70;;;1.60;;
21215;SDS011;10765;50.954;5.322;2022-08-02T11:43:17;2.97;;;1.40;;
21215;SDS011;10765;50.954;5.322;2022-08-02T11:45:45;2.38;;;1.48;;
21215;SDS011;10765;50.954;5.322;2022-08-02T11:48:14;3.60;;;1.60;;
21215;SDS011;10765;50.954;5.322;2022-08-02T11:51:05;2.00;;;1.45;;
21215;SDS011;10765;50.954;5.322;2022-08-02T11:53:39;4.13;;;1.83;;
21215;SDS011;10765;50.954;5.322;2022-08-02T11:56:08;1.90;;;1.50;;
21215;SDS011;10765;50.954;5.322;2022-08-02T11:58:35;1.67;;;1.50;;
21215;SDS011;10765;50.954;5.322;2022-08-02T12:01:02;5.85;;;2.03;;
21215;SDS011;10765;50.954;5.322;2022-08-02T12:03:33;5.85;;;1.80;;
21215;SDS011;10765;50.954;5.322;2022-08-02T12:06:02;1.42;;;1.30;;
21215;SDS011;10765;50.954;5.322;2022-08-02T12:08:29;2.92;;;2.00;;
21215;SDS011;10765;50.954;5.322;2022-08-02T12:10:56;2.55;;;1.23;;
21215;SDS011;10765;50.954;5.322;2022-08-02T12:13:27;1.83;;;1.48;;
21215;SDS011;10765;50.954;5.322;2022-08-02T12:16:08;3.10;;;1.58;;
21215;SDS011;10765;50.954;5.322;2022-08-02T12:18:51;4.47;;;1.65;;
21215;SDS011;10765;50.954;5.322;2022-08-02T12:21:36;2.08;;;1.27;;
21215;SDS011;10765;50.954;5.322;2022-08-02T12:24:03;1.90;;;1.30;;
21215;SDS011;10765;50.954;5.322;2022-08-02T12:26:39;2.70;;;1.50;;
21215;SDS011;10765;50.954;5.322;2022-08-02T12:29:08;3.28;;;1.40;;
21215;SDS011;10765;50.954;5.322;2022-08-02T12:31:39;3.17;;;1.27;;
21215;SDS011;10765;50.954;5.322;2022-08-02T12:34:12;2.97;;;1.30;;
21215;SDS011;10765;50.954;5.322;2022-08-02T12:36:41;2.90;;;1.30;;
21215;SDS011;10765;50.954;5.322;2022-08-02T12:39:12;2.47;;;1.30;;
21215;SDS011;10765;50.954;5.322;2022-08-02T12:41:39;2.55;;;1.65;;
21215;SDS011;10765;50.954;5.322;2022-08-02T12:44:15;1.45;;;1.20;;
21215;SDS011;10765;50.954;5.322;2022-08-02T12:46:43;1.70;;;1.40;;
21215;SDS011;10765;50.954;5.322;2022-08-02T12:49:24;4.30;;;1.58;;
21215;SDS011;10765;50.954;5.322;2022-08-02T12:51:51;2.00;;;1.20;;
21215;SDS011;10765;50.954;5.322;2022-08-02T12:54:18;1.50;;;1.40;;
21215;SDS011;10765;50.954;5.322;2022-08-02T12:56:47;2.05;;;1.38;;
21215;SDS011;10765;50.954;5.322;2022-08-02T12:59:15;1.65;;;1.20;;
21215;SDS011;10765;50.954;5.322;2022-08-02T13:01:42;1.30;;;1.20;;
21215;SDS011;10765;50.954;5.322;2022-08-02T13:04:10;3.25;;;1.10;;
21215;SDS011;10765;50.954;5.322;2022-08-02T13:06:40;1.20;;;1.10;;
21215;SDS011;10765;50.954;5.322;2022-08-02T13:09:11;3.45;;;1.20;;
21215;SDS011;10765;50.954;5.322;2022-08-02T13:11:39;1.77;;;1.20;;
21215;SDS011;10765;50.954;5.322;2022-08-02T13:14:06;4.32;;;1.65;;
21215;SDS011;10765;50.954;5.322;2022-08-02T13:16:33;1.42;;;1.25;;
21215;SDS011;10765;50.954;5.322;2022-08-02T13:19:00;2.40;;;1.45;;
21215;SDS011;10765;50.954;5.322;2022-08-02T13:21:27;2.15;;;1.58;;
21215;SDS011;10765;50.954;5.322;2022-08-02T13:23:55;1.33;;;1.23;;
21215;SDS011;10765;50.954;5.322;2022-08-02T13:26:22;4.20;;;1.50;;
21215;SDS011;10765;50.954;5.322;2022-08-02T13:28:49;2.78;;;1.38;;
21215;SDS011;10765;50.954;5.322;2022-08-02T13:31:16;3.15;;;1.38;;
21215;SDS011;10765;50.954;5.322;2022-08-02T13:33:43;3.13;;;1.60;;
21215;SDS011;10765;50.954;5.322;2022-08-02T13:36:10;2.80;;;1.23;;
21215;SDS011;10765;50.954;5.322;2022-08-02T13:38:37;4.50;;;1.50;;
21215;SDS011;10765;50.954;5.322;2022-08-02T13:41:05;1.83;;;1.27;;
21215;SDS011;10765;50.954;5.322;2022-08-02T13:43:34;1.80;;;1.30;;
21215;SDS011;10765;50.954;5.322;2022-08-02T13:46:02;1.85;;;1.33;;
21215;SDS011;10765;50.954;5.322;2022-08-02T13:48:31;3.28;;;1.20;;
21215;SDS011;10765;50.954;5.322;2022-08-02T13:50:58;4.53;;;1.20;;
21215;SDS011;10765;50.954;5.322;2022-08-02T13:53:25;2.17;;;1.25;;
21215;SDS011;10765;50.954;5.322;2022-08-02T13:55:52;1.40;;;1.15;;
21215;SDS011;10765;50.954;5.322;2022-08-02T13:58:20;2.38;;;1.38;;
21215;SDS011;10765;50.954;5.322;2022-08-02T14:00:47;2.90;;;1.40;;
21215;SDS011;10765;50.954;5.322;2022-08-02T14:03:14;1.88;;;1.35;;
21215;SDS011;10765;50.954;5.322;2022-08-02T14:05:41;1.77;;;1.35;;
21215;SDS011;10765;50.954;5.322;2022-08-02T14:08:08;2.83;;;1.42;;
21215;SDS011;10765;50.954;5.322;2022-08-02T14:10:35;3.65;;;1.27;;
21215;SDS011;10765;50.954;5.322;2022-08-02T14:13:02;1.63;;;1.05;;
21215;SDS011;10765;50.954;5.322;2022-08-02T14:15:30;3.38;;;1.27;;
21215;SDS011;10765;50.954;5.322;2022-08-02T14:17:57;4.30;;;1.13;;
21215;SDS011;10765;50.954;5.322;2022-08-02T14:20:24;1.55;;;1.20;;
21215;SDS011;10765;50.954;5.322;2022-08-02T14:22:51;2.65;;;1.45;;
21215;SDS011;10765;50.954;5.322;2022-08-02T14:25:18;2.55;;;1.27;;
21215;SDS011;10765;50.954;5.322;2022-08-02T14:27:45;3.42;;;1.17;;
21215;SDS011;10765;50.954;5.322;2022-08-02T14:30:12;2.92;;;1.10;;
21215;SDS011;10765;50.954;5.322;2022-08-02T14:32:41;3.20;;;1.30;;
21215;SDS011;10765;50.954;5.322;2022-08-02T14:35:07;3.67;;;1.35;;
21215;SDS011;10765;50.954;5.322;2022-08-02T14:37:35;2.90;;;1.40;;
21215;SDS011;10765;50.954;5.322;2022-08-02T14:40:02;1.30;;;1.20;;
21215;SDS011;10765;50.954;5.322;2022-08-02T14:42:29;1.63;;;1.50;;
21215;SDS011;10765;50.954;5.322;2022-08-02T14:44:57;2.67;;;1.23;;
21215;SDS011;10765;50.954;5.322;2022-08-02T14:47:24;2.33;;;1.33;;
21215;SDS011;10765;50.954;5.322;2022-08-02T14:49:52;2.33;;;1.20;;
21215;SDS011;10765;50.954;5.322;2022-08-02T14:52:19;5.07;;;1.25;;
21215;SDS011;10765;50.954;5.322;2022-08-02T14:54:46;3.33;;;1.10;;
21215;SDS011;10765;50.954;5.322;2022-08-02T14:57:13;4.18;;;1.02;;
21215;SDS011;10765;50.954;5.322;2022-08-02T14:59:40;1.48;;;0.90;;
21215;SDS011;10765;50.954;5.322;2022-08-02T15:02:07;4.38;;;1.20;;
21215;SDS011;10765;50.954;5.322;2022-08-02T15:04:34;1.88;;;1.05;;
21215;SDS011;10765;50.954;5.322;2022-08-02T15:07:02;2.20;;;1.00;;